• Join FlightAware (Why Join?)
  • Login
  • US Flag 
02:47PM EST


 

Airport Tracker/Info


-or-


 

Live Flight TrackerFlight Track Log ✈ N45NS ✈ 28-Oct-2013 ✈ KPWK - KBJJ

Flight Track Log - Related Links

Times and Time Zones

All times are in EDT time to prevent confusion due to time zone crossing. See the N45NS flight status page for this flight to view local times or setup timezone preferences in your user account.

Time Position Orientation Groundspeed Altitude Reporting Facility
EDT Latitude Longitude Course Direction KTS MPH feet Rate Location/Type
01:56PM 42.0950 -87.5230 313° West 100 115 10,400  Level FlightAware
01:56PM 42.0650 -87.4330 114° Southeast 317 365 13,700 2,940 Climbing FlightAware
01:57PM 42.0280 -87.3170 113° Southeast 369 425 15,700 2,220 Climbing FlightAware
01:59PM 41.9760 -87.1540 113° Southeast 377 434 18,600 2,580 Climbing FlightAware
01:59PM 41.9600 -87.0740 105° East 396 456 20,300 2,640 Climbing FlightAware
02:00PM 41.9460 -86.9380 98° East 430 495 22,600 2,460 Climbing FlightAware
02:01PM 41.9330 -86.8290 99° East 417 480 24,200 2,280 Climbing FlightAware
02:01PM 41.9210 -86.7260 99° East 425 489 25,700 2,100 Climbing FlightAware
02:02PM 41.9090 -86.6180 98° East 446 513 27,000 1,500 Climbing FlightAware
02:03PM 41.8960 -86.5240 100° East 443 510 27,600 1,380 Climbing FlightAware
02:03PM 41.8820 -86.4020 99° East 454 522 28,900 1,020 Climbing FlightAware
02:04PM 41.8680 -86.3000 100° East 465 535 29,000 60 Climbing FlightAware
02:04PM 41.8570 -86.2110 99° East 489 563 29,000  Level FlightAware
02:05PM 41.8360 -86.0560 100° East 484 557 29,000  Level FlightAware
02:06PM 41.8240 -85.9570 99° East 474 545 29,000  Level FlightAware
02:07PM 41.8010 -85.7740 100° East 505 581 29,000  Level FlightAware
02:08PM 41.7890 -85.6700 99° East 452 520 29,000  Level FlightAware
02:08PM 41.7740 -85.5730 102° East 482 555 29,000  Level FlightAware
02:09PM 41.7520 -85.4050 100° East 487 560 29,000  Level FlightAware
02:10PM 41.7320 -85.2540 100° East 459 528 29,000  Level FlightAware
02:10PM 41.7200 -85.1710 101° East 494 568 29,000  Level FlightAware
02:11PM 41.6950 -85.0470 105° East 494 568 29,000  Level FlightAware
02:12PM 41.6860 -84.9280 96° East 494 568 29,000  Level FlightAware
02:12PM 41.6740 -84.8360 100° East 494 568 29,000  Level FlightAware
02:13PM 41.6660 -84.7750 100° East 494 568 29,000  Level FlightAware
02:13PM 41.6310 -84.6440 110° East 494 568 29,000  Level FlightAware
02:14PM 41.6100 -84.5230 103° East 494 568 29,000  Level FlightAware
02:15PM 41.5990 -84.4600 103° East 494 568 29,000  Level FlightAware
02:15PM 41.5780 -84.3410 103° East 494 568 29,000  Level FlightAware
02:16PM 41.5680 -84.2800 102° East 494 568 29,000  Level FlightAware
02:16PM 41.5510 -84.1860 104° East 494 568 29,000 -1,740 Level FlightAware
02:17PM 41.3994 -84.0303 104° East 481 554 27,000 -1,920 Descending Cleveland Center
02:18PM 41.3422 -83.8736 116° Southeast 475 547 26,000 -1,080 Descending Cleveland Center
02:19PM 41.2750 -83.6881 116° Southeast 468 539 24,800 -1,080 Descending Cleveland Center
02:20PM 41.2183 -83.5328 116° Southeast 470 541 23,800 -1,020 Descending Cleveland Center
02:21PM 41.1625 -83.3797 116° Southeast 465 535 22,800 -1,320 Descending Cleveland Center
02:22PM 41.1072 -83.2286 116° Southeast 460 529 21,100 -2,220 Descending Cleveland Center
02:23PM 41.0472 -83.0683 116° Southeast 447 514 18,300 -2,760 Descending Cleveland Center
02:24PM 40.9956 -82.9294 116° Southeast 425 489 15,500 -2,760 Descending Cleveland Center
02:25PM 40.9478 -82.8011 116° Southeast 393 452 12,700 -2,580 Descending Cleveland Center
02:26PM 40.9025 -82.6792 116° Southeast 376 433 10,200 -2,340 Descending Cleveland Center
02:27PM 40.8664 -82.5575 111° Southeast 312 359 7,900 -2,160 Descending Cleveland Center
02:28PM 40.8692 -82.4492 88° East 293 337 5,800 -1,440 Descending Cleveland Center
02:29PM 40.8700 -82.3472 89° East 283 326 5,000 -840 Descending Cleveland Center
02:30PM 40.8719 -82.2483 88° East 272 313 4,100 -660 Descending Cleveland Center
02:31PM 40.8731 -82.1522 89° East 266 306 3,700 -540 Descending Cleveland Center
02:32PM 40.8736 -82.0564 90° East 262 302 3,000 -360 Descending Cleveland Center
02:33PM 40.8750 -81.9472 89° East 263 303 3,000  Level Cleveland Center